Time;durP1;ratioP1;P1;durP2;ratioP2;P2;SDS_P1;SDS_P2;PMS_P1;PMS_P2;Temp;Humidity;BMP_temperature;BMP_pressure;BME280_temperature;BME280_humidity;BME280_pressure;Samples;Min_cycle;Max_cycle;Signal;HPM_P1;HPM_P2
2021/11/02 00:00:36;;;;;;;37.72;24.10;;;;;;;;;;5054196;28;20465;-53
2021/11/02 00:03:03;;;;;;;31.48;21.35;;;;;;;;;;5052458;28;20115;-52
2021/11/02 00:05:30;;;;;;;38.15;25.80;;;;;;;;;;5054262;28;20025;-52
2021/11/02 00:07:56;;;;;;;38.92;22.33;;;;;;;;;;5054127;28;20025;-54
2021/11/02 00:10:24;;;;;;;38.90;24.58;;;;;;;;;;5054037;28;20028;-53
2021/11/02 00:12:51;;;;;;;36.83;22.27;;;;;;;;;;5053937;28;20476;-52
2021/11/02 00:15:21;;;;;;;35.15;20.95;;;;;;;;;;5053836;28;20021;-52
2021/11/02 00:17:50;;;;;;;34.73;21.50;;;;;;;;;;5052384;28;20044;-53
2021/11/02 00:20:19;;;;;;;33.85;21.60;;;;;;;;;;5053806;28;20618;-52
2021/11/02 00:22:58;;;;;;;34.55;21.13;;;;;;;;;;5053976;28;20495;-52
2021/11/02 00:25:25;;;;;;;41.83;24.00;;;;;;;;;;5053818;28;20021;-52
2021/11/02 00:27:51;;;;;;;33.47;21.50;;;;;;;;;;5053738;28;20074;-53
2021/11/02 00:30:18;;;;;;;36.38;21.60;;;;;;;;;;5053681;28;20021;-53
2021/11/02 00:32:45;;;;;;;34.85;21.42;;;;;;;;;;5053524;28;20028;-52
2021/11/02 00:35:12;;;;;;;31.75;20.50;;;;;;;;;;5053514;28;20480;-52
2021/11/02 00:37:38;;;;;;;42.35;23.17;;;;;;;;;;5053608;28;20036;-51
2021/11/02 00:40:06;;;;;;;39.92;23.98;;;;;;;;;;5053454;28;20107;-51
2021/11/02 00:42:57;;;;;;;32.95;21.85;;;;;;;;;;5053485;28;20396;-52
2021/11/02 00:45:28;;;;;;;31.60;20.90;;;;;;;;;;5053219;28;20037;-52
2021/11/02 00:47:55;;;;;;;36.00;23.85;;;;;;;;;;5053452;28;20485;-53
2021/11/02 00:50:24;;;;;;;41.25;24.02;;;;;;;;;;5053400;28;20108;-52
2021/11/02 00:52:50;;;;;;;37.80;24.05;;;;;;;;;;5053339;28;20032;-52
2021/11/02 00:55:16;;;;;;;35.97;22.42;;;;;;;;;;5053221;28;20032;-52
2021/11/02 00:57:43;;;;;;;33.13;20.17;;;;;;;;;;5053239;28;20082;-52
2021/11/02 01:00:10;;;;;;;33.95;22.25;;;;;;;;;;5053371;28;20024;-52
2021/11/02 01:02:36;;;;;;;34.28;23.52;;;;;;;;;;5053108;28;20031;-52
2021/11/02 01:05:03;;;;;;;49.70;26.10;;;;;;;;;;5053252;28;20040;-53
2021/11/02 01:07:30;;;;;;;33.80;21.85;;;;;;;;;;5053124;28;20063;-52
2021/11/02 01:09:56;;;;;;;34.03;21.90;;;;;;;;;;5053253;28;20018;-52
2021/11/02 01:12:22;;;;;;;40.17;23.40;;;;;;;;;;5053135;28;20031;-52
2021/11/02 01:14:48;;;;;;;35.20;21.88;;;;;;;;;;5054799;28;20504;-53
2021/11/02 01:17:17;;;;;;;33.92;21.63;;;;;;;;;;5057166;28;20040;-52
2021/11/02 01:19:43;;;;;;;41.65;24.08;;;;;;;;;;5056941;28;20049;-52
2021/11/02 01:22:11;;;;;;;35.20;22.90;;;;;;;;;;5057268;28;20037;-53
2021/11/02 01:24:38;;;;;;;47.72;26.65;;;;;;;;;;5057077;28;20077;-51
2021/11/02 01:27:04;;;;;;;37.05;23.08;;;;;;;;;;5057057;28;20032;-52
2021/11/02 01:29:30;;;;;;;35.88;23.63;;;;;;;;;;5056960;28;20025;-52
2021/11/02 01:31:56;;;;;;;46.40;21.10;;;;;;;;;;5056989;28;20029;-52
2021/11/02 01:34:23;;;;;;;38.58;24.45;;;;;;;;;;5057228;28;20025;-52
2021/11/02 01:36:49;;;;;;;40.50;27.25;;;;;;;;;;5057022;28;20048;-52
2021/11/02 01:39:16;;;;;;;40.55;21.63;;;;;;;;;;5056907;28;20353;-52
2021/11/02 01:41:44;;;;;;;35.58;22.45;;;;;;;;;;5056985;28;20032;-53
2021/11/02 01:44:10;;;;;;;37.67;22.52;;;;;;;;;;5056832;28;20017;-53
2021/11/02 01:46:40;;;;;;;37.35;22.88;;;;;;;;;;5056865;28;20074;-53
2021/11/02 01:49:07;;;;;;;40.10;23.20;;;;;;;;;;5056598;28;20025;-53
2021/11/02 01:51:35;;;;;;;34.35;21.92;;;;;;;;;;5056667;28;20040;-52
2021/11/02 01:54:02;;;;;;;36.72;22.60;;;;;;;;;;5056481;28;20036;-52
2021/11/02 01:56:28;;;;;;;34.35;21.50;;;;;;;;;;5056721;28;20124;-54
2021/11/02 01:58:54;;;;;;;38.85;22.30;;;;;;;;;;5056622;28;20055;-54
2021/11/02 02:01:28;;;;;;;35.90;22.95;;;;;;;;;;5056419;28;20032;-53
2021/11/02 02:04:10;;;;;;;41.72;22.80;;;;;;;;;;5056427;28;20370;-54
2021/11/02 02:06:52;;;;;;;33.97;21.10;;;;;;;;;;5056815;28;20021;-55
2021/11/02 02:09:31;;;;;;;36.42;23.63;;;;;;;;;;5056389;28;20021;-53
2021/11/02 02:12:04;;;;;;;35.40;20.80;;;;;;;;;;5056564;28;20106;-57
2021/11/02 02:14:40;;;;;;;34.40;21.52;;;;;;;;;;5056482;28;20049;-54
2021/11/02 02:17:10;;;;;;;32.88;21.55;;;;;;;;;;5056410;28;20094;-53
2021/11/02 02:19:37;;;;;;;34.08;22.70;;;;;;;;;;5056059;28;20069;-54
2021/11/02 02:22:04;;;;;;;33.92;21.67;;;;;;;;;;5056118;28;20029;-54
2021/11/02 02:24:31;;;;;;;32.63;22.05;;;;;;;;;;5056165;28;20031;-55
2021/11/02 02:27:15;;;;;;;34.70;21.48;;;;;;;;;;5056049;28;20388;-54
2021/11/02 02:29:43;;;;;;;34.85;21.45;;;;;;;;;;5056128;28;20021;-54
2021/11/02 02:32:15;;;;;;;31.75;20.38;;;;;;;;;;5055966;28;20017;-53
2021/11/02 02:34:41;;;;;;;31.13;20.15;;;;;;;;;;5056203;28;20388;-53
2021/11/02 02:37:08;;;;;;;32.55;20.27;;;;;;;;;;5055862;28;20033;-53
2021/11/02 02:39:35;;;;;;;31.67;20.35;;;;;;;;;;5055881;28;20524;-53
2021/11/02 02:42:01;;;;;;;32.97;21.45;;;;;;;;;;5055783;28;20029;-53
2021/11/02 02:44:28;;;;;;;39.08;24.63;;;;;;;;;;5056051;28;20025;-53
2021/11/02 02:46:57;;;;;;;33.80;23.15;;;;;;;;;;5055823;28;20057;-53
2021/11/02 02:49:23;;;;;;;33.20;22.25;;;;;;;;;;5055756;28;20021;-53
2021/11/02 02:51:51;;;;;;;33.38;20.95;;;;;;;;;;5055779;28;20052;-53
2021/11/02 02:54:17;;;;;;;34.03;22.00;;;;;;;;;;5055633;28;20025;-53
2021/11/02 02:56:47;;;;;;;37.72;24.25;;;;;;;;;;5055463;28;20043;-53
2021/11/02 02:59:15;;;;;;;35.38;22.38;;;;;;;;;;5055803;28;20025;-52
2021/11/02 03:01:44;;;;;;;39.53;23.90;;;;;;;;;;5055403;28;20025;-52
2021/11/02 03:04:18;;;;;;;37.00;22.08;;;;;;;;;;5055464;28;20025;-52
2021/11/02 03:06:46;;;;;;;35.95;23.08;;;;;;;;;;5055341;28;20029;-52
2021/11/02 03:09:12;;;;;;;38.85;22.77;;;;;;;;;;5055205;28;20037;-52
2021/11/02 03:11:39;;;;;;;38.00;23.63;;;;;;;;;;5055288;28;20395;-53
2021/11/02 03:14:10;;;;;;;37.33;23.67;;;;;;;;;;5055154;28;20025;-53
2021/11/02 03:19:47;;;;;;;37.70;23.27;;;;;;;;;;5054993;28;20066;-53
2021/11/02 03:49:24;;;;;;;36.65;23.45;;;;;;;;;;5054369;28;20040;-54
2021/11/02 03:54:44;;;;;;;42.88;24.95;;;;;;;;;;5072083;28;20036;-53
2021/11/02 03:57:18;;;;;;;38.13;24.13;;;;;;;;;;5072302;28;20486;-54
2021/11/02 04:35:58;;;;;;;45.95;27.88;;;;;;;;;;4954171;29;20391;-52
2021/11/02 05:11:21;;;;;;;47.00;28.70;;;;;;;;;;5050969;28;20032;-53
2021/11/02 05:46:59;;;;;;;48.42;29.15;;;;;;;;;;5052950;28;20071;-53
2021/11/02 05:59:45;;;;;;;49.58;28.20;;;;;;;;;;5052808;28;20059;-53
2021/11/02 06:02:32;;;;;;;39.95;25.73;;;;;;;;;;5056667;28;20025;-53
2021/11/02 06:08:21;;;;;;;48.63;27.75;;;;;;;;;;5074381;28;20044;-53
2021/11/02 06:30:06;;;;;;;44.63;26.58;;;;;;;;;;5074120;28;20062;-54
2021/11/02 06:32:38;;;;;;;41.45;24.20;;;;;;;;;;5073893;28;20028;-53
2021/11/02 06:38:26;;;;;;;44.45;26.80;;;;;;;;;;5073892;28;20043;-54
2021/11/02 07:19:08;;;;;;;49.17;30.25;;;;;;;;;;5055031;28;20110;-54
2021/11/02 07:22:09;;;;;;;45.85;28.80;;;;;;;;;;5055062;28;20029;-54
2021/11/02 08:45:28;;;;;;;39.05;24.70;;;;;;;;;;5053766;28;20389;-53
2021/11/02 08:47:52;;;;;;;38.90;24.60;;;;;;;;;;5053209;28;20094;-53
2021/11/02 08:50:20;;;;;;;43.30;26.23;;;;;;;;;;5053472;28;20025;-53
2021/11/02 08:52:53;;;;;;;39.45;23.65;;;;;;;;;;5053557;28;20477;-53
2021/11/02 08:55:20;;;;;;;39.42;23.95;;;;;;;;;;5053567;28;20109;-53
2021/11/02 08:57:47;;;;;;;43.50;28.92;;;;;;;;;;5053314;28;20037;-53
2021/11/02 09:00:13;;;;;;;51.03;29.98;;;;;;;;;;5053424;28;20021;-54
2021/11/02 09:02:52;;;;;;;45.25;26.23;;;;;;;;;;5053298;28;20037;-53
2021/11/02 09:05:25;;;;;;;47.92;29.73;;;;;;;;;;5053288;28;20354;-53
2021/11/02 09:07:55;;;;;;;49.75;31.88;;;;;;;;;;5053277;28;20056;-54
2021/11/02 09:10:22;;;;;;;47.17;29.35;;;;;;;;;;5053359;28;20033;-53
2021/11/02 09:12:55;;;;;;;43.35;26.58;;;;;;;;;;5053148;28;20033;-52
2021/11/02 09:15:25;;;;;;;44.63;26.42;;;;;;;;;;5053265;28;20040;-53
2021/11/02 09:17:52;;;;;;;46.65;28.67;;;;;;;;;;5052883;28;20385;-53
2021/11/02 09:20:18;;;;;;;39.47;25.63;;;;;;;;;;5053188;28;20045;-53
2021/11/02 09:22:45;;;;;;;38.22;24.63;;;;;;;;;;5053323;28;20037;-53
2021/11/02 09:25:12;;;;;;;35.97;23.30;;;;;;;;;;5053325;28;20030;-53
2021/11/02 09:27:41;;;;;;;39.70;24.42;;;;;;;;;;5053235;28;20028;-53
2021/11/02 09:30:09;;;;;;;53.78;33.10;;;;;;;;;;5053070;28;20036;-53
2021/11/02 09:32:41;;;;;;;34.53;23.95;;;;;;;;;;5052997;28;20021;-54
2021/11/02 09:35:07;;;;;;;39.40;25.48;;;;;;;;;;5053938;28;20122;-53
2021/11/02 09:37:34;;;;;;;38.25;25.85;;;;;;;;;;5057325;28;20495;-54
2021/11/02 09:40:29;;;;;;;41.28;25.98;;;;;;;;;;5056990;28;20025;-53
2021/11/02 09:43:08;;;;;;;43.22;28.92;;;;;;;;;;5057036;28;20035;-53
2021/11/02 09:45:43;;;;;;;39.35;25.13;;;;;;;;;;5057024;28;20495;-53
2021/11/02 09:48:28;;;;;;;41.15;27.63;;;;;;;;;;5056840;28;20028;-53
2021/11/02 09:51:11;;;;;;;41.08;26.50;;;;;;;;;;5056880;28;20465;-53
2021/11/02 09:53:49;;;;;;;37.97;22.70;;;;;;;;;;5056707;28;20377;-53
2021/11/02 09:56:25;;;;;;;46.55;29.95;;;;;;;;;;5056581;28;20029;-53
2021/11/02 09:58:51;;;;;;;43.95;27.08;;;;;;;;;;5056701;28;20090;-53
2021/11/02 10:01:20;;;;;;;35.17;23.77;;;;;;;;;;5056679;28;20139;-53
2021/11/02 10:03:54;;;;;;;36.17;23.08;;;;;;;;;;5056649;28;20051;-53
2021/11/02 10:06:41;;;;;;;36.17;22.85;;;;;;;;;;5056457;28;20445;-53
2021/11/02 10:09:09;;;;;;;39.67;25.05;;;;;;;;;;5056543;28;20499;-53
2021/11/02 10:11:54;;;;;;;34.28;23.83;;;;;;;;;;5056464;28;20078;-53
2021/11/02 10:14:28;;;;;;;34.83;22.75;;;;;;;;;;5056463;28;20029;-53
2021/11/02 10:17:05;;;;;;;32.05;22.63;;;;;;;;;;5056185;28;20083;-53
2021/11/02 10:19:50;;;;;;;34.78;24.15;;;;;;;;;;5056389;28;20049;-53
2021/11/02 10:22:30;;;;;;;31.75;20.83;;;;;;;;;;5056205;28;20621;-53
2021/11/02 10:25:13;;;;;;;33.22;22.23;;;;;;;;;;5056245;28;20040;-52
2021/11/02 10:27:42;;;;;;;33.67;19.73;;;;;;;;;;5055994;28;20025;-53
2021/11/02 10:30:28;;;;;;;28.85;20.73;;;;;;;;;;5055956;28;20021;-53
2021/11/02 10:32:57;;;;;;;27.30;19.33;;;;;;;;;;5055052;28;20487;-52
2021/11/02 10:35:41;;;;;;;28.88;18.83;;;;;;;;;;5056036;28;20025;-53
2021/11/02 10:38:12;;;;;;;31.10;21.98;;;;;;;;;;5055831;28;20065;-52
2021/11/02 10:40:45;;;;;;;27.83;17.07;;;;;;;;;;5055902;28;20025;-52
2021/11/02 10:43:31;;;;;;;28.45;21.23;;;;;;;;;;5054464;28;20693;-52
2021/11/02 10:46:08;;;;;;;43.17;29.05;;;;;;;;;;5055386;28;20100;-52
2021/11/02 10:48:47;;;;;;;35.60;24.30;;;;;;;;;;5055758;28;20037;-52
2021/11/02 10:51:35;;;;;;;33.17;23.88;;;;;;;;;;5055771;28;20051;-58
2021/11/02 10:54:19;;;;;;;25.52;19.23;;;;;;;;;;5055719;28;20032;-53
2021/11/02 10:57:06;;;;;;;31.90;22.20;;;;;;;;;;5055541;28;20025;-53
2021/11/02 10:59:32;;;;;;;29.10;20.38;;;;;;;;;;5053439;28;20471;-54
2021/11/02 11:01:59;;;;;;;29.38;20.42;;;;;;;;;;5053419;28;20056;-53
2021/11/02 11:04:35;;;;;;;27.35;20.15;;;;;;;;;;5053599;28;20039;-52
2021/11/02 11:07:01;;;;;;;26.05;19.27;;;;;;;;;;5053088;28;20032;-52
2021/11/02 11:09:29;;;;;;;33.03;22.20;;;;;;;;;;5053382;28;20032;-55
2021/11/02 11:11:55;;;;;;;26.42;19.48;;;;;;;;;;5053335;28;20033;-52
2021/11/02 11:14:30;;;;;;;28.23;18.30;;;;;;;;;;5053118;28;20544;-52
2021/11/02 11:16:56;;;;;;;24.95;18.33;;;;;;;;;;5053192;28;20033;-54
2021/11/02 11:19:30;;;;;;;29.33;19.20;;;;;;;;;;5052903;28;20052;-53
2021/11/02 11:21:59;;;;;;;42.42;26.70;;;;;;;;;;5052948;28;20025;-53
2021/11/02 11:24:37;;;;;;;34.35;24.30;;;;;;;;;;5036310;28;20037;-53
2021/11/02 11:27:07;;;;;;;32.35;21.77;;;;;;;;;;5052955;28;20025;-53
2021/11/02 11:29:43;;;;;;;31.00;21.43;;;;;;;;;;5053229;28;20033;-53
2021/11/02 11:32:11;;;;;;;34.05;22.80;;;;;;;;;;5053142;28;20044;-53
2021/11/02 11:34:42;;;;;;;29.23;20.60;;;;;;;;;;5052838;28;20535;-53
2021/11/02 11:37:09;;;;;;;29.65;20.48;;;;;;;;;;5054169;28;20508;-53
2021/11/02 11:39:35;;;;;;;38.42;24.33;;;;;;;;;;5054751;28;20028;-53
2021/11/02 11:42:04;;;;;;;32.92;20.42;;;;;;;;;;5054891;28;20078;-53
2021/11/02 11:44:31;;;;;;;33.80;21.08;;;;;;;;;;5055187;28;20025;-53
2021/11/02 11:47:09;;;;;;;38.90;23.73;;;;;;;;;;5054663;28;20048;-54
2021/11/02 11:49:36;;;;;;;39.55;22.10;;;;;;;;;;5054827;28;20108;-54
2021/11/02 11:52:06;;;;;;;41.50;26.23;;;;;;;;;;5054530;28;20112;-54
2021/11/02 11:54:49;;;;;;;55.53;29.23;;;;;;;;;;5054614;28;20024;-54
2021/11/02 11:57:16;;;;;;;45.95;25.77;;;;;;;;;;5054275;28;20349;-54
2021/11/02 11:59:42;;;;;;;42.65;24.88;;;;;;;;;;5053655;28;20090;-54
2021/11/02 12:02:22;;;;;;;45.75;26.35;;;;;;;;;;5054386;28;20031;-54
2021/11/02 12:04:50;;;;;;;53.05;29.38;;;;;;;;;;5054425;28;20450;-54
2021/11/02 12:07:22;;;;;;;45.08;26.35;;;;;;;;;;5054391;28;20090;-54
2021/11/02 12:09:49;;;;;;;36.17;24.27;;;;;;;;;;5054498;28;20017;-54
2021/11/02 12:12:15;;;;;;;32.47;23.23;;;;;;;;;;5054037;28;20036;-54
2021/11/02 12:15:08;;;;;;;29.77;21.65;;;;;;;;;;5054336;28;20021;-54
2021/11/02 12:17:36;;;;;;;24.95;19.27;;;;;;;;;;5053853;28;20072;-54
2021/11/02 12:20:04;;;;;;;27.95;18.63;;;;;;;;;;5053766;28;20045;-54
2021/11/02 12:22:35;;;;;;;23.85;17.25;;;;;;;;;;5053021;28;20082;-53
2021/11/02 12:25:02;;;;;;;;;;;;;;;;;;5054051;28;20025;-54
2021/11/02 12:27:36;;;;;;;28.88;18.83;;;;;;;;;;5053752;28;20307;-53
2021/11/02 12:30:07;;;;;;;37.03;24.85;;;;;;;;;;5053909;28;20095;-53
2021/11/02 12:32:34;;;;;;;29.95;20.90;;;;;;;;;;5053783;28;20071;-53
2021/11/02 12:35:05;;;;;;;31.15;21.77;;;;;;;;;;5053663;28;20025;-53
2021/11/02 12:37:53;;;;;;;32.35;21.95;;;;;;;;;;5053999;28;20052;-54
2021/11/02 12:40:21;;;;;;;30.13;21.17;;;;;;;;;;5053535;28;20473;-53
2021/11/02 12:42:48;;;;;;;28.83;19.13;;;;;;;;;;5053546;28;20029;-53
2021/11/02 12:45:17;;;;;;;36.90;24.70;;;;;;;;;;5053585;28;20017;-53
2021/11/02 12:47:46;;;;;;;26.15;17.95;;;;;;;;;;5053411;28;20389;-53
2021/11/02 12:50:13;;;;;;;25.33;16.17;;;;;;;;;;5053292;28;20036;-54
2021/11/02 12:52:40;;;;;;;51.15;35.65;;;;;;;;;;5053563;28;20461;-53
2021/11/02 12:55:14;;;;;;;30.48;18.83;;;;;;;;;;5053583;28;20040;-53
2021/11/02 12:57:40;;;;;;;28.25;18.20;;;;;;;;;;5053114;28;20032;-53
2021/11/02 13:00:10;;;;;;;28.67;19.25;;;;;;;;;;5053329;28;20397;-53
2021/11/02 13:02:38;;;;;;;25.85;17.15;;;;;;;;;;5053650;28;20097;-53
2021/11/02 13:05:20;;;;;;;28.90;19.90;;;;;;;;;;5053226;28;20108;-53
2021/11/02 13:07:50;;;;;;;31.83;19.90;;;;;;;;;;5053255;28;20029;-53
2021/11/02 13:10:16;;;;;;;42.35;26.00;;;;;;;;;;5053141;28;20064;-53
2021/11/02 13:12:44;;;;;;;28.27;18.67;;;;;;;;;;5053067;28;20524;-53
2021/11/02 13:15:11;;;;;;;62.90;39.92;;;;;;;;;;5052908;28;20028;-53
2021/11/02 13:17:40;;;;;;;55.17;37.17;;;;;;;;;;5053003;28;20115;-53
2021/11/02 13:20:07;;;;;;;62.92;39.50;;;;;;;;;;5052721;28;20056;-53
2021/11/02 13:22:33;;;;;;;58.97;37.97;;;;;;;;;;5052971;28;20021;-52
2021/11/02 13:25:00;;;;;;;113.40;65.63;;;;;;;;;;5052857;28;20122;-53
2021/11/02 13:27:45;;;;;;;62.53;39.15;;;;;;;;;;5053026;28;20473;-53
2021/11/02 13:30:26;;;;;;;65.85;42.08;;;;;;;;;;5052895;28;20049;-53
2021/11/02 13:32:59;;;;;;;58.95;38.30;;;;;;;;;;5052793;28;20026;-53
2021/11/02 13:35:43;;;;;;;37.28;23.10;;;;;;;;;;5051645;28;20369;-53
2021/11/02 13:38:26;;;;;;;91.85;55.00;;;;;;;;;;5052402;28;20076;-53
2021/11/02 13:40:53;;;;;;;79.43;49.45;;;;;;;;;;5049874;28;20028;-55
2021/11/02 13:43:33;;;;;;;72.85;45.80;;;;;;;;;;5052827;28;20358;-56
2021/11/02 13:45:59;;;;;;;76.43;48.90;;;;;;;;;;5052693;28;20025;-54
2021/11/02 13:48:27;;;;;;;87.40;53.22;;;;;;;;;;5052805;28;20028;-55
2021/11/02 13:50:54;;;;;;;84.00;51.38;;;;;;;;;;5053112;28;20402;-54
2021/11/02 13:53:21;;;;;;;89.30;57.15;;;;;;;;;;5052744;28;20025;-55
2021/11/02 13:55:47;;;;;;;106.63;68.70;;;;;;;;;;5051380;28;20086;-55
2021/11/02 13:58:13;;;;;;;78.40;51.03;;;;;;;;;;5052644;28;20094;-55
2021/11/02 14:00:42;;;;;;;39.85;26.50;;;;;;;;;;5052797;28;20044;-54
2021/11/02 14:03:13;;;;;;;63.40;41.58;;;;;;;;;;5052602;28;20029;-56
2021/11/02 14:05:42;;;;;;;63.42;39.83;;;;;;;;;;5052844;28;20017;-55
2021/11/02 14:08:08;;;;;;;56.28;36.72;;;;;;;;;;5052695;28;20033;-55
2021/11/02 14:10:39;;;;;;;48.10;31.00;;;;;;;;;;5052660;28;20048;-56
2021/11/02 14:13:05;;;;;;;66.55;41.13;;;;;;;;;;5052613;28;20060;-55
2021/11/02 14:15:34;;;;;;;54.40;37.25;;;;;;;;;;5052855;28;20025;-55
2021/11/02 14:18:11;;;;;;;49.30;34.42;;;;;;;;;;5052260;28;20560;-54
2021/11/02 14:20:49;;;;;;;36.30;26.90;;;;;;;;;;5052711;28;20040;-54
2021/11/02 14:23:21;;;;;;;46.60;31.27;;;;;;;;;;5056319;28;20025;-56
2021/11/02 14:25:47;;;;;;;63.58;39.42;;;;;;;;;;5056125;28;20082;-56
2021/11/02 14:28:29;;;;;;;50.17;33.75;;;;;;;;;;5056110;28;20025;-56
2021/11/02 14:30:55;;;;;;;45.75;30.67;;;;;;;;;;5055954;28;20033;-55
2021/11/02 14:33:21;;;;;;;50.95;34.03;;;;;;;;;;5055951;28;20116;-56
2021/11/02 14:36:05;;;;;;;53.92;35.13;;;;;;;;;;5055980;28;20420;-59
2021/11/02 14:38:48;;;;;;;46.25;33.22;;;;;;;;;;5054585;28;20396;-55
2021/11/02 14:41:34;;;;;;;80.45;49.67;;;;;;;;;;5055589;28;20159;-55
2021/11/02 14:44:16;;;;;;;44.58;30.92;;;;;;;;;;5055912;28;20024;-54
2021/11/02 14:46:46;;;;;;;57.13;39.38;;;;;;;;;;5055693;28;20064;-55
2021/11/02 14:49:30;;;;;;;54.25;35.47;;;;;;;;;;5055742;28;20041;-56
2021/11/02 14:52:01;;;;;;;66.20;45.05;;;;;;;;;;5055548;28;20047;-55
2021/11/02 14:54:30;;;;;;;95.35;59.35;;;;;;;;;;5055394;28;20018;-53
2021/11/02 14:56:57;;;;;;;69.20;43.25;;;;;;;;;;5055565;28;20028;-55
2021/11/02 14:59:24;;;;;;;58.47;36.35;;;;;;;;;;5055377;28;20029;-56
2021/11/02 15:02:01;;;;;;;68.72;43.85;;;;;;;;;;5055518;28;20389;-62
2021/11/02 15:04:29;;;;;;;36.13;24.55;;;;;;;;;;5054759;28;20025;-64
2021/11/02 15:06:57;;;;;;;38.22;26.00;;;;;;;;;;5054804;28;20017;-56
2021/11/02 15:09:25;;;;;;;44.22;29.88;;;;;;;;;;5054793;28;20496;-55
2021/11/02 15:11:52;;;;;;;39.92;26.27;;;;;;;;;;5054790;28;20086;-57
2021/11/02 15:14:19;;;;;;;57.65;36.75;;;;;;;;;;5054520;28;20104;-56
2021/11/02 15:16:47;;;;;;;43.70;29.60;;;;;;;;;;5054714;28;20029;-58
2021/11/02 15:19:13;;;;;;;53.20;32.85;;;;;;;;;;5054134;28;20048;-57
2021/11/02 15:21:50;;;;;;;45.83;30.38;;;;;;;;;;5054800;28;20036;-57
2021/11/02 15:24:23;;;;;;;43.17;27.65;;;;;;;;;;5052896;28;20337;-57
2021/11/02 15:26:55;;;;;;;44.15;28.83;;;;;;;;;;5052267;28;20335;-57
2021/11/02 15:29:21;;;;;;;;;;;;;;;;;;5054913;28;20028;-57
2021/11/02 15:32:19;;;;;;;40.70;27.23;;;;;;;;;;5054350;28;19959;-57
2021/11/02 15:34:48;;;;;;;44.00;27.75;;;;;;;;;;5036996;28;20037;-57
2021/11/02 15:37:33;;;;;;;48.80;31.88;;;;;;;;;;5032334;28;20488;-58
2021/11/02 15:40:01;;;;;;;35.70;24.58;;;;;;;;;;5032281;28;20029;-57
2021/11/02 15:42:38;;;;;;;35.65;25.10;;;;;;;;;;5031908;28;20040;-57
2021/11/02 15:45:05;;;;;;;48.47;30.38;;;;;;;;;;5032103;28;20034;-58
2021/11/02 15:47:33;;;;;;;40.88;25.58;;;;;;;;;;5032000;28;20101;-58
2021/11/02 15:50:00;;;;;;;46.33;29.48;;;;;;;;;;5029211;28;20029;-57
2021/11/02 15:52:31;;;;;;;49.05;32.28;;;;;;;;;;5032071;28;20025;-59
2021/11/02 15:55:05;;;;;;;46.70;30.80;;;;;;;;;;5015221;28;20079;-58
2021/11/02 15:57:41;;;;;;;44.65;28.35;;;;;;;;;;5031902;28;20029;-58
2021/11/02 16:00:09;;;;;;;51.53;31.20;;;;;;;;;;5031439;28;20105;-58
2021/11/02 16:02:36;;;;;;;45.88;29.73;;;;;;;;;;5014078;28;20210;-58
2021/11/02 16:05:05;;;;;;;35.67;23.50;;;;;;;;;;5015319;28;20028;-58
2021/11/02 16:07:32;;;;;;;43.45;28.30;;;;;;;;;;5029281;28;20084;-59
2021/11/02 16:09:59;;;;;;;51.90;29.67;;;;;;;;;;5036858;28;20116;-60
2021/11/02 16:12:25;;;;;;;57.00;34.72;;;;;;;;;;5053836;28;20021;-56
2021/11/02 16:15:01;;;;;;;41.38;27.95;;;;;;;;;;5053491;28;20075;-57
2021/11/02 16:17:31;;;;;;;47.55;30.83;;;;;;;;;;5053534;28;20064;-62
2021/11/02 16:19:58;;;;;;;42.28;27.65;;;;;;;;;;5053138;28;20041;-59
2021/11/02 16:22:25;;;;;;;41.33;26.80;;;;;;;;;;5053412;28;20051;-56
2021/11/02 16:25:01;;;;;;;44.05;28.38;;;;;;;;;;5053410;28;20021;-56
2021/11/02 16:27:28;;;;;;;41.15;26.15;;;;;;;;;;5053300;28;20032;-56
2021/11/02 16:29:54;;;;;;;35.28;23.48;;;;;;;;;;5053242;28;20021;-57
2021/11/02 16:32:29;;;;;;;40.13;23.63;;;;;;;;;;5053193;28;20017;-56
2021/11/02 16:34:56;;;;;;;36.05;23.73;;;;;;;;;;5050980;28;20052;-56
2021/11/02 16:37:36;;;;;;;35.10;21.83;;;;;;;;;;5053218;28;20013;-56
2021/11/02 16:40:17;;;;;;;29.13;19.23;;;;;;;;;;5051793;28;20031;-57
2021/11/02 16:43:01;;;;;;;24.05;15.52;;;;;;;;;;5051934;28;20021;-57
2021/11/02 16:45:32;;;;;;;31.08;19.77;;;;;;;;;;5051940;28;21050;-56
2021/11/02 16:48:07;;;;;;;25.60;16.43;;;;;;;;;;5051200;28;20385;-55
2021/11/02 16:50:37;;;;;;;29.45;19.58;;;;;;;;;;5053024;28;20242;-58
2021/11/02 16:53:15;;;;;;;33.13;20.50;;;;;;;;;;5053078;28;20448;-56
2021/11/02 16:55:44;;;;;;;28.35;17.98;;;;;;;;;;5051311;28;20112;-55
2021/11/02 16:58:20;;;;;;;32.92;21.20;;;;;;;;;;5052649;28;20154;-55
2021/11/02 17:00:47;;;;;;;29.98;20.20;;;;;;;;;;5052972;28;20025;-56
2021/11/02 17:03:20;;;;;;;24.48;16.00;;;;;;;;;;5053310;28;20100;-58
2021/11/02 17:05:47;;;;;;;21.40;13.48;;;;;;;;;;5053391;28;20029;-56
2021/11/02 17:08:14;;;;;;;24.10;14.75;;;;;;;;;;5053277;28;20052;-56
2021/11/02 17:10:41;;;;;;;20.42;13.82;;;;;;;;;;5053318;28;20481;-55
2021/11/02 17:13:08;;;;;;;20.17;13.10;;;;;;;;;;5053129;28;20507;-56
2021/11/02 17:15:37;;;;;;;18.55;12.35;;;;;;;;;;5053236;28;20025;-56
2021/11/02 17:18:04;;;;;;;17.83;12.18;;;;;;;;;;5052694;28;20021;-57
2021/11/02 17:20:30;;;;;;;20.08;12.10;;;;;;;;;;5050178;28;20040;-59
2021/11/02 17:22:57;;;;;;;22.15;13.43;;;;;;;;;;5052752;28;20017;-57
2021/11/02 17:25:23;;;;;;;26.65;17.10;;;;;;;;;;5052682;28;20029;-55
2021/11/02 17:27:50;;;;;;;24.88;15.38;;;;;;;;;;5050014;28;20013;-54
2021/11/02 17:30:18;;;;;;;28.67;16.58;;;;;;;;;;5052497;28;20029;-57
2021/11/02 17:32:44;;;;;;;21.98;13.20;;;;;;;;;;5052677;28;20029;-57
2021/11/02 17:35:10;;;;;;;26.70;16.92;;;;;;;;;;5049898;28;20028;-56
2021/11/02 17:37:37;;;;;;;22.25;14.02;;;;;;;;;;5052394;28;20025;-56
2021/11/02 17:40:03;;;;;;;18.25;12.43;;;;;;;;;;5052339;28;20055;-56
2021/11/02 17:42:29;;;;;;;21.13;13.60;;;;;;;;;;5049788;28;20018;-55
2021/11/02 17:44:56;;;;;;;20.35;13.13;;;;;;;;;;5052622;28;20376;-56
2021/11/02 17:47:22;;;;;;;16.25;11.23;;;;;;;;;;5052256;28;20044;-57
2021/11/02 17:49:50;;;;;;;22.23;13.18;;;;;;;;;;5053009;28;20170;-57
2021/11/02 17:52:16;;;;;;;21.02;11.25;;;;;;;;;;5053136;28;20017;-57
2021/11/02 17:54:43;;;;;;;20.02;13.15;;;;;;;;;;5052724;28;20051;-56
2021/11/02 17:57:09;;;;;;;22.65;14.50;;;;;;;;;;5054933;28;20021;-59
2021/11/02 17:59:38;;;;;;;23.65;12.98;;;;;;;;;;5056474;28;20481;-57
2021/11/02 18:02:04;;;;;;;28.52;15.43;;;;;;;;;;5056744;28;20043;-58
2021/11/02 18:04:32;;;;;;;21.13;14.73;;;;;;;;;;5056687;28;20021;-58
2021/11/02 18:06:58;;;;;;;26.13;16.83;;;;;;;;;;5055897;28;20042;-57
2021/11/02 18:09:25;;;;;;;26.83;16.55;;;;;;;;;;5056210;28;20381;-57
2021/11/02 18:11:51;;;;;;;29.50;17.60;;;;;;;;;;5056314;28;20108;-56
2021/11/02 18:14:17;;;;;;;30.33;16.33;;;;;;;;;;5055078;28;20029;-56
2021/11/02 18:16:45;;;;;;;31.52;19.13;;;;;;;;;;5056372;28;20025;-60
2021/11/02 18:19:12;;;;;;;53.17;26.08;;;;;;;;;;5055858;28;20049;-58
2021/11/02 18:21:38;;;;;;;28.13;16.67;;;;;;;;;;5056250;28;20032;-58
2021/11/02 18:24:08;;;;;;;21.63;13.63;;;;;;;;;;5056162;28;20031;-59
2021/11/02 18:26:34;;;;;;;31.02;19.00;;;;;;;;;;5056127;28;20021;-62
2021/11/02 18:29:02;;;;;;;17.20;10.48;;;;;;;;;;5055897;28;20021;-57
2021/11/02 18:31:28;;;;;;;46.10;26.92;;;;;;;;;;5056029;28;20053;-57
2021/11/02 18:33:55;;;;;;;27.90;16.60;;;;;;;;;;5055035;28;20498;-56
2021/11/02 18:36:21;;;;;;;28.88;15.23;;;;;;;;;;5055985;28;20044;-58
2021/11/02 18:38:48;;;;;;;22.00;11.43;;;;;;;;;;5055728;28;20033;-57
2021/11/02 18:41:15;;;;;;;59.03;32.70;;;;;;;;;;5055787;28;20492;-55
2021/11/02 18:43:41;;;;;;;31.15;18.70;;;;;;;;;;5055871;28;20028;-58
2021/11/02 18:46:08;;;;;;;28.55;14.90;;;;;;;;;;5055822;28;20028;-56
2021/11/02 18:48:36;;;;;;;30.30;15.95;;;;;;;;;;5055553;28;20083;-58
2021/11/02 18:51:02;;;;;;;31.23;19.02;;;;;;;;;;5055667;28;20029;-58
2021/11/02 18:53:28;;;;;;;45.58;22.25;;;;;;;;;;5055497;28;20082;-57
2021/11/02 18:55:55;;;;;;;28.75;18.17;;;;;;;;;;5055622;28;20048;-57
2021/11/02 18:58:22;;;;;;;41.38;25.88;;;;;;;;;;5055401;28;20415;-58
2021/11/02 19:00:48;;;;;;;38.85;21.98;;;;;;;;;;5055445;28;20407;-56
2021/11/02 19:03:17;;;;;;;44.50;24.50;;;;;;;;;;5055564;28;20025;-55
2021/11/02 19:05:44;;;;;;;45.70;25.48;;;;;;;;;;5055408;28;20028;-59
2021/11/02 19:08:11;;;;;;;34.67;20.65;;;;;;;;;;5055128;28;20056;-54
2021/11/02 19:10:38;;;;;;;70.90;34.83;;;;;;;;;;5055376;28;20052;-60
2021/11/02 19:13:05;;;;;;;50.97;28.30;;;;;;;;;;5055109;28;20024;-59
2021/11/02 19:15:31;;;;;;;23.40;15.27;;;;;;;;;;5055228;28;20366;-58
2021/11/02 19:17:58;;;;;;;29.60;15.88;;;;;;;;;;5055105;28;20156;-55
2021/11/02 19:20:24;;;;;;;33.92;20.25;;;;;;;;;;5054900;28;20397;-53
2021/11/02 19:22:51;;;;;;;49.88;30.20;;;;;;;;;;5055208;28;20021;-53
2021/11/02 19:25:18;;;;;;;44.33;27.75;;;;;;;;;;5054950;28;20115;-55
2021/11/02 19:27:44;;;;;;;54.22;30.25;;;;;;;;;;5054871;28;20355;-55